I75

Osceola Municipal Airport

Osceola, Iowa, USA
METAR KI75 251635Z AUTO 24012G17KT 10SM SCT007 BKN013 OVC018 22/20 A2988 RMK AO2 T02200195
Observed Flight Rules
Sep-25 @ 16:35 UTC (28 minutes ago) Marginal Visual Flight Rules
Wind Visibility Clouds
240° at 12 knots
 Gusting to 17 knots
10 miles
  • Scattered at 700' AGL
  • Broken at 1,300' AGL
  • Overcast at 1,800' AGL
Temperatures Readings
Current 22°C / 72°F
Dewpoint 20°C / 68°F
Humidity 88%
Altimeter 29.88" Hg
Pressure 1012 hPa
Elevation 339
METAR KI75 251635Z AUTO 24012G17KT 10SM SCT007 BKN013 OVC018 22/20 A2988 RMK AO2 T02200195
Observed Flight Rules
Sep-25 @ 16:35 UTC
(28 minutes ago)
MVFR
Wind Visibility
240° at 12 knots
 Gusting to 17 knots
10 miles
Clouds
  • Scattered at 700' AGL
  • Broken at 1,300' AGL
  • Overcast at 1,800' AGL
Temperature Dewpoint
22°C / 72°F 20°C / 68°F
Humidity Altimeter Pressure
88% 29.88" Hg 1012 hPa